Time;durP1;ratioP1;P1;durP2;ratioP2;P2;SDS_P1;SDS_P2;PMS_P1;PMS_P2;Temp;Humidity;BMP_temperature;BMP_pressure;BME280_temperature;BME280_humidity;BME280_pressure;Samples;Min_cycle;Max_cycle;Signal;HPM_P1;HPM_P2
2023/08/02 00:01:32;;;;;;;;;;;;;;;27.75;43.78;100031.41;5095819;28;1141;-27
2023/08/02 00:03:58;;;;;;;;;;;;;;;27.70;43.78;100038.44;5095477;28;1054;-27
2023/08/02 00:06:26;;;;;;;;;;;;;;;27.71;43.47;100040.94;5095878;28;1985;-26
2023/08/02 00:08:51;;;;;;;;;;;;;;;27.80;43.45;100044.28;5096099;28;1224;-28
2023/08/02 00:11:17;;;;;;;;;;;;;;;27.75;43.57;100044.06;5095795;28;1023;-26
2023/08/02 00:13:42;;;;;;;;;;;;;;;27.72;43.65;100036.38;5096374;28;1118;-26
2023/08/02 00:16:09;;;;;;;;;;;;;;;27.72;43.00;100045.31;5094697;28;1059;-29
2023/08/02 00:18:35;;;;;;;;;;;;;;;27.73;43.45;100049.66;5095573;28;1431;-31
2023/08/02 00:21:00;;;;;;;;;;;;;;;27.68;43.44;100037.75;5095411;28;1114;-29
2023/08/02 00:23:26;;;;;;;;;;;;;;;27.73;43.43;100044.28;5095836;28;1002;-27
2023/08/02 00:25:51;;;;;;;;;;;;;;;27.74;43.60;100054.03;5095474;28;1984;-30
2023/08/02 00:28:17;;;;;;;;;;;;;;;27.77;43.13;100051.97;5081784;28;1000;-26
2023/08/02 00:30:43;;;;;;;;;;;;;;;27.74;43.65;100050.50;5095823;28;1082;-27
2023/08/02 00:33:09;;;;;;;;;;;;;;;27.81;43.26;100047.81;5077826;28;1221;-29
2023/08/02 00:35:34;;;;;;;;;;;;;;;27.72;43.53;100052.59;5095585;28;1114;-29
2023/08/02 00:38:00;;;;;;;;;;;;;;;27.82;43.42;100046.78;5096195;28;1066;-30
2023/08/02 00:40:25;;;;;;;;;;;;;;;27.78;43.47;100040.13;5095345;28;1049;-28
2023/08/02 00:42:51;;;;;;;;;;;;;;;27.79;43.39;100047.19;5077238;28;1098;-27
2023/08/02 00:45:17;;;;;;;;;;;;;;;27.81;43.78;100047.81;5095739;28;1089;-28
2023/08/02 00:47:42;;;;;;;;;;;;;;;27.79;43.39;100050.75;5079376;28;1977;-28
2023/08/02 00:50:08;;;;;;;;;;;;;;;27.87;43.52;100044.28;5099064;28;1118;-25
2023/08/02 00:52:34;;;;;;;;;;;;;;;27.85;43.54;100036.41;5080526;28;1214;-29
2023/08/02 00:54:59;;;;;;;;;;;;;;;27.85;43.64;100041.81;5081025;28;1182;-27
2023/08/02 00:57:25;;;;;;;;;;;;;;;27.88;43.45;100048.66;5099226;28;1221;-29
2023/08/02 00:59:51;;;;;;;;;;;;;;;27.73;43.73;100044.28;5099231;28;1011;-28
2023/08/02 01:02:16;;;;;;;;;;;;;;;27.80;43.66;100047.00;5096763;28;1140;-32
2023/08/02 01:04:42;;;;;;;;;;;;;;;27.75;43.83;100041.34;5093696;28;1005;-28
2023/08/02 01:07:23;;;;;;;;;;;;;;;27.83;43.44;100045.72;5080533;28;1959;-27
2023/08/02 01:09:48;;;;;;;;;;;;;;;27.81;43.36;100029.72;5080577;28;1373;-26
2023/08/02 01:12:14;;;;;;;;;;;;;;;27.83;42.97;100037.63;5080949;28;1295;-33
2023/08/02 01:14:40;;;;;;;;;;;;;;;27.84;42.93;100037.41;5080954;28;1158;-29
2023/08/02 01:17:06;;;;;;;;;;;;;;;27.92;42.78;100041.81;5098294;28;1036;-30
2023/08/02 01:19:32;;;;;;;;;;;;;;;27.88;42.87;100040.53;5080742;28;1145;-28
2023/08/02 01:21:57;;;;;;;;;;;;;;;27.84;42.43;100042.00;5098820;28;1129;-32
2023/08/02 01:24:26;;;;;;;;;;;;;;;27.85;43.10;100039.09;5098530;28;1031;-29
2023/08/02 01:26:52;;;;;;;;;;;;;;;27.88;43.14;100040.53;5080512;28;1910;-30
2023/08/02 01:29:19;;;;;;;;;;;;;;;27.85;42.92;100040.97;5098095;28;1224;-28
2023/08/02 01:31:44;;;;;;;;;;;;;;;27.89;43.26;100041.38;5098501;28;1213;-30
2023/08/02 01:34:10;;;;;;;;;;;;;;;27.84;42.93;100039.31;5098459;28;1081;-27
2023/08/02 01:36:37;;;;;;;;;;;;;;;27.83;43.02;100029.50;5080574;28;1256;-29
2023/08/02 01:39:02;;;;;;;;;;;;;;;27.83;43.06;100026.81;5098263;28;1050;-26
2023/08/02 01:41:28;;;;;;;;;;;;;;;27.77;43.20;100023.09;5097990;28;922;-29
2023/08/02 01:43:53;;;;;;;;;;;;;;;27.83;42.94;100024.94;5098513;28;1126;-29
2023/08/02 01:46:19;;;;;;;;;;;;;;;27.82;43.23;100026.00;5080186;28;1961;-26
2023/08/02 01:48:44;;;;;;;;;;;;;;;27.78;43.26;100030.13;5097848;28;1117;-27
2023/08/02 01:51:10;;;;;;;;;;;;;;;27.85;43.23;100025.59;5079900;28;1051;-26
2023/08/02 01:53:36;;;;;;;;;;;;;;;27.74;43.29;100024.31;5098142;28;1139;-30
2023/08/02 01:56:01;;;;;;;;;;;;;;;27.83;43.15;100030.34;5079840;28;1114;-29
2023/08/02 01:58:29;;;;;;;;;;;;;;;27.80;43.07;100022.66;5079729;28;1213;-31
2023/08/02 02:00:54;;;;;;;;;;;;;;;27.79;43.14;100023.72;5079799;28;1251;-24
2023/08/02 02:03:20;;;;;;;;;;;;;;;27.71;42.74;100019.31;5079563;28;1202;-28
2023/08/02 02:05:53;;;;;;;;;;;;;;;27.82;42.88;100019.75;5079288;28;1910;-30
2023/08/02 02:08:18;;;;;;;;;;;;;;;27.80;42.89;100021.81;5079373;28;1349;-30
2023/08/02 02:10:50;;;;;;;;;;;;;;;27.84;42.69;100014.97;5079419;28;1125;-29
2023/08/02 02:13:17;;;;;;;;;;;;;;;27.81;42.66;100020.81;5097525;28;1193;-25
2023/08/02 02:15:42;;;;;;;;;;;;;;;27.75;42.74;100015.19;5079689;28;1632;-29
2023/08/02 02:18:08;;;;;;;;;;;;;;;27.75;42.61;100026.00;5078835;28;1161;-26
2023/08/02 02:20:33;;;;;;;;;;;;;;;27.69;42.66;100021.41;5078990;28;1035;-28
2023/08/02 02:22:59;;;;;;;;;;;;;;;27.81;42.29;100026.22;5078823;28;1073;-26
2023/08/02 02:25:25;;;;;;;;;;;;;;;27.73;42.98;100027.22;5097703;28;970;-29
2023/08/02 02:27:51;;;;;;;;;;;;;;;27.70;43.08;100019.53;5079141;28;1980;-25
2023/08/02 02:30:18;;;;;;;;;;;;;;;27.83;42.47;100024.09;5096736;28;936;-29
2023/08/02 02:32:43;;;;;;;;;;;;;;;27.83;42.40;100030.34;5097346;28;995;-29
2023/08/02 02:35:12;;;;;;;;;;;;;;;27.80;42.47;100029.94;5097201;28;1153;-29
2023/08/02 02:37:39;;;;;;;;;;;;;;;27.78;42.24;100029.31;5097702;28;1166;-29
2023/08/02 02:40:05;;;;;;;;;;;;;;;27.77;42.56;100019.53;5097218;28;998;-26
2023/08/02 02:42:31;;;;;;;;;;;;;;;27.86;42.46;100029.13;5096856;28;1142;-27
2023/08/02 02:44:56;;;;;;;;;;;;;;;27.78;42.44;100024.72;5097083;28;1166;-28
2023/08/02 02:47:22;;;;;;;;;;;;;;;27.78;42.65;100021.22;5096958;28;1972;-27
2023/08/02 02:49:47;;;;;;;;;;;;;;;27.71;42.69;100024.72;5078351;28;1074;-28
2023/08/02 02:52:13;;;;;;;;;;;;;;;27.78;42.56;100013.91;5096877;28;1078;-31
2023/08/02 02:54:39;;;;;;;;;;;;;;;27.69;42.85;100017.88;5096749;28;1038;-27
2023/08/02 02:57:05;;;;;;;;;;;;;;;27.75;42.87;100020.59;5096545;28;1110;-26
2023/08/02 02:59:30;;;;;;;;;;;;;;;27.75;42.47;100019.75;5096776;28;1117;-29
2023/08/02 03:01:56;;;;;;;;;;;;;;;27.69;42.66;100017.88;5096501;28;1301;-29
2023/08/02 03:04:21;;;;;;;;;;;;;;;27.80;42.60;100027.22;5096977;28;1049;-27
2023/08/02 03:06:47;;;;;;;;;;;;;;;27.75;42.63;100034.09;5095417;28;1910;-26
2023/08/02 03:09:13;;;;;;;;;;;;;;;27.75;42.64;100028.69;5078909;28;1117;-35
2023/08/02 03:11:38;;;;;;;;;;;;;;;27.76;42.73;100026.81;5094640;28;1199;-27
2023/08/02 03:14:04;;;;;;;;;;;;;;;27.90;42.49;100026.81;5095733;28;972;-26
2023/08/02 03:16:30;;;;;;;;;;;;;;;27.37;45.09;100039.97;5093811;28;2924;-28
2023/08/02 03:18:56;;;;;;;;;;;;;;;27.48;45.20;100036.69;5095261;28;1126;-27
2023/08/02 03:21:21;;;;;;;;;;;;;;;27.48;45.29;100031.28;5095754;28;1011;-31
2023/08/02 03:23:47;;;;;;;;;;;;;;;27.46;45.94;100027.13;5077858;28;923;-30
2023/08/02 03:26:12;;;;;;;;;;;;;;;27.41;46.24;100029.59;5095563;28;1898;-27
2023/08/02 03:28:38;;;;;;;;;;;;;;;27.44;46.29;100021.09;5096178;28;1003;-32
2023/08/02 03:31:03;;;;;;;;;;;;;;;27.12;46.84;100024.31;5095248;28;949;-29
2023/08/02 03:33:29;;;;;;;;;;;;;;;26.97;46.98;100014.44;5096136;28;1209;-27
2023/08/02 03:35:54;;;;;;;;;;;;;;;26.71;46.87;100020.53;5096307;28;1090;-29
2023/08/02 03:38:20;;;;;;;;;;;;;;;26.76;46.51;100026.13;5095084;28;1235;-32
2023/08/02 03:40:45;;;;;;;;;;;;;;;27.11;45.61;100028.03;5095965;28;1244;-29
2023/08/02 03:43:11;;;;;;;;;;;;;;;27.21;45.52;100030.38;5095726;28;1333;-26
2023/08/02 03:45:36;;;;;;;;;;;;;;;27.25;45.35;100031.63;5090103;28;2360;-31
2023/08/02 03:48:02;;;;;;;;;;;;;;;27.05;46.14;100024.25;5096228;28;1371;-34
2023/08/02 03:50:28;;;;;;;;;;;;;;;26.36;48.24;100018.63;5095722;28;1269;-27
2023/08/02 03:52:53;;;;;;;;;;;;;;;26.05;49.94;100028.72;5095769;28;1054;-27
2023/08/02 03:55:19;;;;;;;;;;;;;;;26.69;47.20;100020.72;5089057;28;1374;-29
2023/08/02 03:57:44;;;;;;;;;;;;;;;27.16;42.70;100022.03;5080484;28;1414;-26
2023/08/02 04:00:10;;;;;;;;;;;;;;;27.63;41.59;100023.00;5087318;28;999;-26
2023/08/02 04:02:39;;;;;;;;;;;;;;;27.64;42.44;100013.06;5095493;28;960;-28
2023/08/02 04:05:04;;;;;;;;;;;;;;;27.76;42.85;100016.00;5092277;28;1019;-28
2023/08/02 04:07:30;;;;;;;;;;;;;;;27.68;43.63;100016.16;5089865;28;2067;-29
2023/08/02 04:09:55;;;;;;;;;;;;;;;27.66;44.34;100013.66;5082190;28;1146;-26
2023/08/02 04:12:21;;;;;;;;;;;;;;;27.78;43.94;100015.81;5095595;28;1038;-32
2023/08/02 04:14:47;;;;;;;;;;;;;;;27.86;43.45;100015.63;5088360;28;1915;-28
2023/08/02 04:17:12;;;;;;;;;;;;;;;27.99;43.48;100004.78;5087560;28;1080;-27
2023/08/02 04:19:38;;;;;;;;;;;;;;;28.04;43.57;100003.34;5075256;28;1346;-27
2023/08/02 04:22:03;;;;;;;;;;;;;;;28.10;43.01;100007.91;5076782;28;1003;-30
2023/08/02 04:24:29;;;;;;;;;;;;;;;28.24;43.30;100012.28;5084863;28;1098;-28
2023/08/02 04:26:55;;;;;;;;;;;;;;;28.15;43.22;100004.59;5099626;28;1906;-26
2023/08/02 04:29:20;;;;;;;;;;;;;;;28.21;43.56;100006.47;5098903;28;1038;-27
2023/08/02 04:31:46;;;;;;;;;;;;;;;28.14;43.90;100011.03;5080576;28;880;-26
2023/08/02 04:34:11;;;;;;;;;;;;;;;28.22;43.52;100008.97;5098044;28;1035;-29
2023/08/02 04:36:37;;;;;;;;;;;;;;;28.17;43.68;100006.06;5087554;28;1122;-29
2023/08/02 04:39:03;;;;;;;;;;;;;;;28.19;43.92;100008.56;5080493;28;1031;-29
2023/08/02 04:41:29;;;;;;;;;;;;;;;28.26;44.01;100003.94;5098900;28;1439;-27
2023/08/02 04:43:55;;;;;;;;;;;;;;;28.20;44.18;100011.03;5084976;28;843;-27
2023/08/02 04:46:21;;;;;;;;;;;;;;;28.19;44.52;100012.09;5084352;28;2094;-30
2023/08/02 04:48:46;;;;;;;;;;;;;;;28.18;44.03;100013.13;5094092;28;1111;-29
2023/08/02 04:51:12;;;;;;;;;;;;;;;27.84;42.10;100010.38;5093283;28;1120;-26
2023/08/02 04:53:38;;;;;;;;;;;;;;;28.09;40.46;100015.19;5092430;28;1257;-30
2023/08/02 04:56:08;;;;;;;;;;;;;;;28.13;41.60;100012.91;5098266;28;839;-26
2023/08/02 04:58:33;;;;;;;;;;;;;;;28.16;41.49;100019.78;5098963;28;1011;-27
2023/08/02 05:01:02;;;;;;;;;;;;;;;28.06;41.53;100014.81;5081997;28;993;-29
2023/08/02 05:03:28;;;;;;;;;;;;;;;28.09;41.34;100009.78;5080782;28;1015;-29
2023/08/02 05:06:03;;;;;;;;;;;;;;;28.17;40.81;100018.75;5087947;28;1987;-28
2023/08/02 05:08:29;;;;;;;;;;;;;;;28.14;40.61;100017.28;5086389;28;1147;-30
2023/08/02 05:10:55;;;;;;;;;;;;;;;28.16;40.88;100009.78;5078684;28;1024;-29
2023/08/02 05:13:24;;;;;;;;;;;;;;;28.07;40.25;100014.59;5082288;28;1019;-27
2023/08/02 05:15:49;;;;;;;;;;;;;;;28.14;40.47;100013.75;5087966;28;1826;-27
2023/08/02 05:18:15;;;;;;;;;;;;;;;28.26;40.31;100016.66;5091916;28;1030;-30
2023/08/02 05:20:41;;;;;;;;;;;;;;;28.14;40.72;100011.88;5078487;28;1055;-29
2023/08/02 05:23:06;;;;;;;;;;;;;;;28.25;40.42;100018.53;5096008;28;1131;-27
2023/08/02 05:25:32;;;;;;;;;;;;;;;28.16;40.61;100019.78;5098255;28;1026;-26
2023/08/02 05:27:58;;;;;;;;;;;;;;;28.18;40.40;100017.69;5097889;28;1905;-29
2023/08/02 05:30:23;;;;;;;;;;;;;;;28.17;40.31;100018.75;5097861;28;1046;-28
2023/08/02 05:32:49;;;;;;;;;;;;;;;28.05;40.54;100007.72;5092784;28;1105;-27
2023/08/02 05:35:14;;;;;;;;;;;;;;;28.09;40.60;100008.97;5077900;28;1093;-27
2023/08/02 05:37:40;;;;;;;;;;;;;;;28.08;40.55;100018.09;5092062;28;1351;-27
2023/08/02 05:40:06;;;;;;;;;;;;;;;28.14;40.41;100014.59;5091812;28;972;-31
2023/08/02 05:42:32;;;;;;;;;;;;;;;28.16;40.11;100007.06;5091286;28;1034;-27
2023/08/02 05:44:57;;;;;;;;;;;;;;;28.19;40.17;100011.25;5097849;28;2326;-28
2023/08/02 05:47:23;;;;;;;;;;;;;;;28.22;40.29;100008.97;5093656;28;1914;-25
2023/08/02 05:49:48;;;;;;;;;;;;;;;28.26;40.15;100009.38;5087744;28;1240;-27
2023/08/02 05:52:17;;;;;;;;;;;;;;;28.31;40.19;100006.88;5094267;28;1030;-27
2023/08/02 05:54:43;;;;;;;;;;;;;;;28.35;40.23;100004.63;5097358;28;1332;-28
2023/08/02 05:57:09;;;;;;;;;;;;;;;28.28;40.43;100007.28;5097224;28;1082;-30
2023/08/02 05:59:37;;;;;;;;;;;;;;;28.40;40.26;100007.53;5097474;28;1043;-30
2023/08/02 06:02:03;;;;;;;;;;;;;;;28.52;40.31;100012.28;5094772;28;1131;-28
2023/08/02 06:04:29;;;;;;;;;;;;;;;28.46;40.51;100009.38;5097778;28;1169;-27
2023/08/02 06:06:54;;;;;;;;;;;;;;;28.41;40.07;100011.06;5097210;28;1961;-29
2023/08/02 06:09:20;;;;;;;;;;;;;;;28.34;40.47;100008.38;5097051;28;1110;-28
2023/08/02 06:11:45;;;;;;;;;;;;;;;28.32;40.33;100008.56;5089611;28;1672;-31
2023/08/02 06:14:11;;;;;;;;;;;;;;;28.50;40.13;100011.66;5093836;28;1391;-30
2023/08/02 06:16:36;;;;;;;;;;;;;;;28.70;40.36;100006.22;5088564;28;2506;-27
2023/08/02 06:19:02;;;;;;;;;;;;;;;28.63;40.14;100008.94;5096661;28;1186;-29
2023/08/02 06:21:27;;;;;;;;;;;;;;;28.63;40.32;100002.72;5097195;28;1030;-28
2023/08/02 06:23:53;;;;;;;;;;;;;;;28.54;40.20;100019.16;5097057;28;1035;-32
2023/08/02 06:26:19;;;;;;;;;;;;;;;28.36;39.43;100007.09;5096839;28;1906;-30
2023/08/02 06:28:44;;;;;;;;;;;;;;;28.37;38.56;100007.94;5097029;28;1022;-28
2023/08/02 06:31:10;;;;;;;;;;;;;;;28.43;37.87;100014.38;5092653;28;1610;-26
2023/08/02 06:33:36;;;;;;;;;;;;;;;28.44;36.99;100014.19;5096969;28;998;-28
2023/08/02 06:36:02;;;;;;;;;;;;;;;28.25;37.11;100013.13;5097024;28;982;-31
2023/08/02 06:38:27;;;;;;;;;;;;;;;28.34;36.88;100008.38;5096449;28;967;-26
2023/08/02 06:40:53;;;;;;;;;;;;;;;28.23;37.07;100010.63;5096986;28;1145;-29
2023/08/02 06:43:18;;;;;;;;;;;;;;;28.17;36.60;100006.06;5096614;28;1111;-29
2023/08/02 06:45:44;;;;;;;;;;;;;;;28.19;36.55;100009.41;5090676;28;2270;-31
2023/08/02 06:48:10;;;;;;;;;;;;;;;28.22;37.65;100008.13;5096620;28;1125;-25
2023/08/02 06:50:36;;;;;;;;;;;;;;;28.31;37.22;100014.97;5096608;28;1122;-27
2023/08/02 06:53:01;;;;;;;;;;;;;;;28.37;37.03;100016.06;5096135;28;1007;-27
2023/08/02 06:55:27;;;;;;;;;;;;;;;28.53;37.44;100013.97;5096161;28;1121;-31
2023/08/02 06:57:53;;;;;;;;;;;;;;;28.46;37.87;100011.28;5096311;28;1047;-29
2023/08/02 07:00:18;;;;;;;;;;;;;;;28.48;38.37;100014.56;5096246;28;1071;-27
2023/08/02 07:02:44;;;;;;;;;;;;;;;28.63;36.25;100000.81;5096340;28;1022;-28
2023/08/02 07:05:09;;;;;;;;;;;;;;;28.64;36.65;99997.09;5096071;28;1174;-27
2023/08/02 07:07:35;;;;;;;;;;;;;;;28.82;36.87;99998.28;5095879;28;1914;-27
2023/08/02 07:10:00;;;;;;;;;;;;;;;29.02;36.01;99994.69;5096219;28;1106;-31
2023/08/02 07:12:26;;;;;;;;;;;;;;;28.87;37.59;100003.88;5096089;28;1046;-30
2023/08/02 07:14:51;;;;;;;;;;;;;;;28.83;37.61;100002.63;5096246;28;1913;-27
2023/08/02 07:17:17;;;;;;;;;;;;;;;28.82;37.93;99999.13;5096297;28;1058;-28
2023/08/02 07:19:42;;;;;;;;;;;;;;;28.71;38.09;100003.28;5092498;28;1209;-28
2023/08/02 07:22:08;;;;;;;;;;;;;;;28.64;38.10;99993.53;5095306;28;1257;-29
2023/08/02 07:24:34;;;;;;;;;;;;;;;28.69;38.03;99986.47;5095829;28;1293;-26
2023/08/02 07:26:59;;;;;;;;;;;;;;;28.70;38.36;99979.16;5095660;28;1914;-31
2023/08/02 07:29:25;;;;;;;;;;;;;;;28.71;38.13;99991.66;5095309;28;1269;-30
2023/08/02 07:31:51;;;;;;;;;;;;;;;28.80;38.44;99989.53;5095643;28;1300;-30
2023/08/02 07:34:16;;;;;;;;;;;;;;;28.79;38.70;100006.81;5095892;28;1272;-32
2023/08/02 07:36:42;;;;;;;;;;;;;;;28.91;38.63;100004.28;5095688;28;1074;-27
2023/08/02 07:39:07;;;;;;;;;;;;;;;28.93;38.88;99999.47;5094963;28;1181;-29
2023/08/02 07:41:33;;;;;;;;;;;;;;;28.94;39.01;99999.28;5092332;28;1328;-23
2023/08/02 07:43:59;;;;;;;;;;;;;;;29.02;39.38;99995.53;5094389;28;896;-28
2023/08/02 07:46:24;;;;;;;;;;;;;;;28.91;39.86;99996.97;5095829;28;2693;-27
2023/08/02 07:48:51;;;;;;;;;;;;;;;29.04;39.67;99996.16;5095592;28;1102;-27
2023/08/02 07:51:16;;;;;;;;;;;;;;;29.03;39.79;99991.78;5095442;28;1078;-28
2023/08/02 07:53:42;;;;;;;;;;;;;;;29.01;40.15;99995.75;5093798;28;1214;-28
2023/08/02 07:56:08;;;;;;;;;;;;;;;29.00;39.58;100003.03;5093599;28;1116;-27
2023/08/02 07:58:34;;;;;;;;;;;;;;;29.06;40.34;99987.81;5099812;28;1363;-28
2023/08/02 08:01:09;;;;;;;;;;;;;;;29.09;40.31;99984.69;5098493;28;1327;-27
2023/08/02 08:03:34;;;;;;;;;;;;;;;29.09;40.24;99984.69;5100044;28;1082;-29
2023/08/02 08:06:00;;;;;;;;;;;;;;;29.07;40.56;99986.75;5098686;28;1906;-26
2023/08/02 08:08:26;;;;;;;;;;;;;;;29.23;40.12;99971.06;5097025;28;1148;-29
2023/08/02 08:10:51;;;;;;;;;;;;;;;29.14;40.45;99976.75;5099530;28;1444;-30
2023/08/02 08:13:17;;;;;;;;;;;;;;;29.16;40.39;99976.53;5089540;28;1289;-29
2023/08/02 08:15:43;;;;;;;;;;;;;;;29.16;40.57;99981.94;5089752;28;2053;-31
2023/08/02 08:18:09;;;;;;;;;;;;;;;29.23;40.22;99966.47;5096592;28;1308;-28
2023/08/02 08:20:34;;;;;;;;;;;;;;;29.39;39.33;99972.44;5098568;28;1232;-28
2023/08/02 08:23:00;;;;;;;;;;;;;;;29.50;38.98;99970.91;5097981;28;1105;-26
2023/08/02 08:25:25;;;;;;;;;;;;;;;29.29;40.03;99973.75;5089340;28;1347;-28
2023/08/02 08:27:51;;;;;;;;;;;;;;;29.15;40.92;99966.72;5097125;28;1906;-27
2023/08/02 08:30:17;;;;;;;;;;;;;;;29.12;40.60;99972.56;5098504;28;1205;-27
2023/08/02 08:32:42;;;;;;;;;;;;;;;29.14;40.62;99971.31;5097432;28;1284;-27
2023/08/02 08:35:09;;;;;;;;;;;;;;;29.18;40.73;99966.28;5098158;28;1272;-27
2023/08/02 08:37:35;;;;;;;;;;;;;;;29.24;39.98;99956.47;5098601;28;1289;-28
2023/08/02 08:40:00;;;;;;;;;;;;;;;29.20;40.62;99953.38;5098673;28;1343;-30
2023/08/02 08:42:26;;;;;;;;;;;;;;;29.23;40.38;99961.06;5097021;28;1089;-29
2023/08/02 08:44:51;;;;;;;;;;;;;;;29.23;40.63;99957.53;5097290;28;1866;-31
2023/08/02 08:47:17;;;;;;;;;;;;;;;29.18;40.54;99961.72;5080059;28;1898;-32
2023/08/02 08:49:46;;;;;;;;;;;;;;;29.12;40.81;99951.75;5097953;28;1098;-32
2023/08/02 08:52:12;;;;;;;;;;;;;;;29.19;40.63;99949.00;5098423;28;1038;-29
2023/08/02 08:54:37;;;;;;;;;;;;;;;29.14;40.64;99952.38;5080521;28;1047;-28
2023/08/02 08:57:03;;;;;;;;;;;;;;;29.09;40.76;99949.47;5079872;28;1146;-31
2023/08/02 08:59:29;;;;;;;;;;;;;;;29.15;40.10;99956.72;5098637;28;1087;-32
2023/08/02 09:01:54;;;;;;;;;;;;;;;29.05;40.89;99948.22;5098133;28;1229;-31
2023/08/02 09:04:20;;;;;;;;;;;;;;;29.06;39.03;99945.31;5080765;28;1154;-29
2023/08/02 09:06:45;;;;;;;;;;;;;;;29.14;39.77;99944.25;5098413;28;1905;-29
2023/08/02 09:09:14;;;;;;;;;;;;;;;29.15;40.22;99947.75;5096622;28;922;-27
2023/08/02 09:11:40;;;;;;;;;;;;;;;29.16;40.38;99949.44;5094574;28;1317;-29
2023/08/02 09:14:12;;;;;;;;;;;;;;;29.08;40.38;99956.75;5068188;28;1575;-30
2023/08/02 09:16:56;;;;;;;;;;;;;;;29.12;40.37;99953.63;5098419;28;2207;-33
2023/08/02 09:19:23;;;;;;;;;;;;;;;29.20;39.88;99946.09;5097985;28;1180;-29
2023/08/02 09:22:08;;;;;;;;;;;;;;;29.27;39.99;99943.34;5098328;28;918;-27
2023/08/02 09:24:37;;;;;;;;;;;;;;;29.14;40.23;99957.78;5098098;28;1091;-28
2023/08/02 09:27:04;;;;;;;;;;;;;;;29.19;40.27;99949.00;5097251;28;1917;-27
2023/08/02 09:29:46;;;;;;;;;;;;;;;29.31;39.85;99949.97;5085052;28;1190;-31
2023/08/02 09:32:12;;;;;;;;;;;;;;;29.43;39.57;99960.09;5094125;28;1213;-33
2023/08/02 09:34:41;;;;;;;;;;;;;;;29.38;39.64;99965.38;5089185;28;1093;-28
2023/08/02 09:37:06;;;;;;;;;;;;;;;29.49;39.65;99958.41;5081921;28;1483;-30
2023/08/02 09:39:32;;;;;;;;;;;;;;;29.55;39.48;99963.78;5087994;28;1142;-32
2023/08/02 09:42:07;;;;;;;;;;;;;;;29.61;39.04;99958.56;5093915;28;1209;-29
2023/08/02 09:44:32;;;;;;;;;;;;;;;29.48;39.77;99964.88;5067872;28;1213;-26
2023/08/02 09:47:07;;;;;;;;;;;;;;;29.50;40.11;99962.78;5075189;28;2741;-27
2023/08/02 09:49:32;;;;;;;;;;;;;;;29.54;39.58;99961.31;5091374;28;1083;-29
2023/08/02 09:51:58;;;;;;;;;;;;;;;29.48;40.67;99948.63;5096327;28;1344;-30
2023/08/02 09:54:24;;;;;;;;;;;;;;;29.59;39.91;99947.97;5094841;28;1186;-29
2023/08/02 09:56:50;;;;;;;;;;;;;;;29.48;39.95;99943.22;5095427;28;1233;-34
2023/08/02 09:59:15;;;;;;;;;;;;;;;29.50;39.04;99949.22;5082000;28;1329;-30
2023/08/02 10:01:41;;;;;;;;;;;;;;;29.62;39.31;99950.22;5071749;28;1564;-32
2023/08/02 10:04:07;;;;;;;;;;;;;;;29.61;40.03;99951.28;5075530;28;1453;-28
2023/08/02 10:06:43;;;;;;;;;;;;;;;29.55;40.22;99950.25;5085987;28;1914;-27
2023/08/02 10:09:08;;;;;;;;;;;;;;;29.43;39.97;99944.69;5087974;28;1740;-32
2023/08/02 10:11:53;;;;;;;;;;;;;;;29.48;39.41;99945.94;5091538;28;1146;-31
2023/08/02 10:14:19;;;;;;;;;;;;;;;29.67;39.85;99934.13;5078742;28;1225;-28
2023/08/02 10:16:45;;;;;;;;;;;;;;;29.62;39.94;99941.25;5095295;28;2634;-29
2023/08/02 10:19:11;;;;;;;;;;;;;;;29.64;40.12;99944.59;5105467;28;1212;-28
2023/08/02 10:21:37;;;;;;;;;;;;;;;29.42;40.92;99943.03;5095414;28;890;-30
2023/08/02 10:24:03;;;;;;;;;;;;;;;29.19;42.18;99936.31;5095042;28;1062;-31
2023/08/02 10:26:29;;;;;;;;;;;;;;;29.33;41.19;99939.75;5077485;28;1993;-34
2023/08/02 10:28:55;;;;;;;;;;;;;;;29.38;41.78;99936.38;5078294;28;1327;-32
2023/08/02 10:31:20;;;;;;;;;;;;;;;29.26;41.84;99943.56;5078361;28;1087;-29
2023/08/02 10:33:46;;;;;;;;;;;;;;;29.37;41.72;99945.56;5095327;28;1106;-28
2023/08/02 10:36:11;;;;;;;;;;;;;;;29.35;41.55;99942.22;5096478;28;1023;-30
2023/08/02 10:38:37;;;;;;;;;;;;;;;29.32;41.44;99943.50;5085884;28;1043;-27
2023/08/02 10:41:03;;;;;;;;;;;;;;;29.35;41.84;99947.66;5096385;28;1178;-27
2023/08/02 10:43:29;;;;;;;;;;;;;;;29.35;41.69;99939.53;5095815;28;1027;-31
2023/08/02 10:46:27;;;;;;;;;;;;;;;29.31;41.88;99936.41;5088755;28;2364;-27
2023/08/02 10:49:11;;;;;;;;;;;;;;;29.39;41.66;99940.78;5042974;28;1284;-28
2023/08/02 10:51:37;;;;;;;;;;;;;;;29.36;41.75;99943.06;5078273;28;1057;-32
2023/08/02 10:54:15;;;;;;;;;;;;;;;29.33;42.19;99933.50;5087157;28;1142;-30
2023/08/02 10:56:58;;;;;;;;;;;;;;;29.34;42.50;99937.88;5095011;28;1091;-31
2023/08/02 10:59:24;;;;;;;;;;;;;;;29.41;42.23;99935.94;5089491;28;1143;-30
2023/08/02 11:01:53;;;;;;;;;;;;;;;29.38;42.86;99927.44;5095723;28;1175;-30
2023/08/02 11:04:19;;;;;;;;;;;;;;;29.37;42.42;99932.03;5095859;28;1122;-33
2023/08/02 11:06:44;;;;;;;;;;;;;;;29.43;42.62;99920.31;5095582;28;1910;-29
2023/08/02 11:09:10;;;;;;;;;;;;;;;29.45;42.20;99925.50;5091072;28;1278;-30
2023/08/02 11:11:36;;;;;;;;;;;;;;;29.40;42.53;99919.91;5093165;28;1327;-29
2023/08/02 11:14:02;;;;;;;;;;;;;;;29.51;42.27;99924.63;5089932;28;1249;-29
2023/08/02 11:16:28;;;;;;;;;;;;;;;29.48;42.06;99922.34;5093256;28;2355;-29
2023/08/02 11:18:54;;;;;;;;;;;;;;;29.45;42.29;99917.38;5094878;28;1363;-31
2023/08/02 11:21:19;;;;;;;;;;;;;;;29.55;41.47;99922.31;5089370;28;1206;-30
2023/08/02 11:23:49;;;;;;;;;;;;;;;29.51;42.18;99918.38;5094094;28;1311;-30
2023/08/02 11:26:15;;;;;;;;;;;;;;;29.45;41.83;99925.50;5093842;28;1882;-30
2023/08/02 11:28:48;;;;;;;;;;;;;;;29.38;41.74;99922.03;5095778;28;1302;-30
2023/08/02 11:31:13;;;;;;;;;;;;;;;29.32;41.62;99913.72;5084182;28;1507;-32
2023/08/02 11:33:40;;;;;;;;;;;;;;;29.36;42.41;99913.28;5076651;28;1187;-29
2023/08/02 11:36:06;;;;;;;;;;;;;;;29.37;41.84;99913.06;5093848;28;1125;-29
2023/08/02 11:38:31;;;;;;;;;;;;;;;29.49;42.16;99915.91;5094960;28;1358;-27
2023/08/02 11:40:57;;;;;;;;;;;;;;;29.42;42.00;99910.53;5095094;28;1284;-32
2023/08/02 11:43:35;;;;;;;;;;;;;;;29.44;41.81;99911.16;5095000;28;1367;-28
2023/08/02 11:46:11;;;;;;;;;;;;;;;29.30;42.33;99904.13;5083065;28;2384;-31
2023/08/02 11:48:36;;;;;;;;;;;;;;;29.35;42.12;99896.19;5089670;28;1311;-29
2023/08/02 11:51:02;;;;;;;;;;;;;;;29.33;41.66;99906.41;5094992;28;1261;-29
2023/08/02 11:53:27;;;;;;;;;;;;;;;29.29;42.29;99902.47;5077347;28;1097;-35
2023/08/02 11:55:53;;;;;;;;;;;;;;;29.28;42.49;99898.13;5090635;28;1161;-28
2023/08/02 11:58:19;;;;;;;;;;;;;;;29.38;42.11;99903.06;5062092;28;1289;-29
2023/08/02 12:00:44;;;;;;;;;;;;;;;29.33;42.23;99907.25;5094693;28;1173;-30
2023/08/02 12:03:10;;;;;;;;;;;;;;;29.25;42.04;99909.38;5094390;28;1228;-27
2023/08/02 12:05:36;;;;;;;;;;;;;;;29.24;42.33;99910.44;5094415;28;1280;-31
2023/08/02 12:08:11;;;;;;;;;;;;;;;29.19;42.44;99911.94;5087864;28;1986;-32
2023/08/02 12:10:38;;;;;;;;;;;;;;;29.23;42.58;99914.19;5094370;28;1228;-30
2023/08/02 12:13:10;;;;;;;;;;;;;;;29.30;42.13;99914.97;5093372;28;1256;-31
2023/08/02 12:15:36;;;;;;;;;;;;;;;29.23;42.20;99904.19;5094796;28;2534;-33
2023/08/02 12:18:05;;;;;;;;;;;;;;;29.18;42.61;99909.41;5095474;28;1323;-29
2023/08/02 12:20:34;;;;;;;;;;;;;;;29.27;42.45;99907.28;5094246;28;1083;-30
2023/08/02 12:22:59;;;;;;;;;;;;;;;29.34;42.56;99913.50;5095275;28;1449;-31
2023/08/02 12:25:25;;;;;;;;;;;;;;;29.27;42.56;99904.56;5095520;28;1054;-28
2023/08/02 12:28:09;;;;;;;;;;;;;;;29.36;42.18;99913.28;5092707;28;1914;-29
2023/08/02 12:30:34;;;;;;;;;;;;;;;29.43;42.11;99914.03;5094624;28;1059;-30
2023/08/02 12:33:00;;;;;;;;;;;;;;;29.35;42.28;99912.44;5074729;28;1340;-32
2023/08/02 12:35:26;;;;;;;;;;;;;;;29.32;42.45;99911.00;5087964;28;1281;-30
2023/08/02 12:37:51;;;;;;;;;;;;;;;29.38;42.19;99905.78;5087285;28;1174;-27
2023/08/02 12:40:17;;;;;;;;;;;;;;;29.43;42.51;99905.91;5092178;28;1029;-29
2023/08/02 12:42:42;;;;;;;;;;;;;;;29.43;42.54;99900.50;5096696;28;1489;-30
2023/08/02 12:45:08;;;;;;;;;;;;;;;29.54;42.19;99902.53;5094177;28;1939;-28
2023/08/02 12:47:34;;;;;;;;;;;;;;;29.52;41.48;99899.19;5098205;28;1988;-29
2023/08/02 12:49:59;;;;;;;;;;;;;;;29.51;42.07;99905.66;5098203;28;1178;-29